createdAt,value
2022-08-27T00:00:19.128Z,89.00
2022-08-27T00:02:49.178Z,89.15
2022-08-27T00:05:18.576Z,89.61
2022-08-27T00:07:45.906Z,89.63
2022-08-27T00:10:22.033Z,89.71
2022-08-27T00:12:49.268Z,89.60
2022-08-27T00:15:17.838Z,89.45
2022-08-27T00:17:46.754Z,89.86
2022-08-27T00:20:18.477Z,90.26
2022-08-27T00:22:45.623Z,90.55
2022-08-27T00:25:12.997Z,91.15
2022-08-27T00:27:40.419Z,90.69
2022-08-27T00:30:13.070Z,90.42
2022-08-27T00:32:40.804Z,89.98
2022-08-27T00:35:09.242Z,90.06
2022-08-27T00:37:37.886Z,90.10
2022-08-27T00:40:06.742Z,89.58
2022-08-27T00:42:33.741Z,89.34
2022-08-27T00:45:00.889Z,89.10
2022-08-27T00:47:31.880Z,89.25
2022-08-27T00:50:02.983Z,88.94
2022-08-27T00:52:35.608Z,88.62
2022-08-27T00:55:12.061Z,88.56
2022-08-27T00:57:42.527Z,89.02
2022-08-27T01:00:15.009Z,89.63
2022-08-27T01:02:42.310Z,90.00
2022-08-27T01:05:13.489Z,90.61
2022-08-27T01:07:43.327Z,91.16
2022-08-27T01:10:16.016Z,91.41
2022-08-27T01:12:43.686Z,91.94
2022-08-27T01:15:19.811Z,92.13
2022-08-27T01:17:48.577Z,92.39
2022-08-27T01:20:19.369Z,91.88
2022-08-27T01:22:55.073Z,91.18
2022-08-27T01:25:24.944Z,90.46
2022-08-27T01:27:54.124Z,90.30
2022-08-27T01:30:21.828Z,90.17
2022-08-27T01:32:49.248Z,90.17
2022-08-27T01:35:17.583Z,89.97
2022-08-27T01:37:47.638Z,89.94
2022-08-27T01:40:16.307Z,89.50
2022-08-27T01:42:48.360Z,89.42
2022-08-27T01:45:17.616Z,89.08
2022-08-27T01:47:44.661Z,89.00
2022-08-27T01:50:15.161Z,89.01
2022-08-27T01:52:42.660Z,88.95
2022-08-27T01:55:13.044Z,88.50
2022-08-27T01:57:40.189Z,88.44
2022-08-27T02:00:13.516Z,87.98
2022-08-27T02:02:41.655Z,87.72
2022-08-27T02:05:09.259Z,86.79
2022-08-27T02:07:36.590Z,86.78
2022-08-27T02:10:04.833Z,86.29
2022-08-27T02:12:31.849Z,86.63
2022-08-27T02:14:58.736Z,86.56
2022-08-27T02:17:27.285Z,86.42
2022-08-27T02:19:54.739Z,85.92
2022-08-27T02:22:21.622Z,85.58
2022-08-27T02:24:48.735Z,85.63
2022-08-27T02:27:15.644Z,85.51
2022-08-27T02:29:42.820Z,85.38
2022-08-27T02:32:17.760Z,85.06
2022-08-27T02:34:58.317Z,84.61
2022-08-27T02:37:25.218Z,84.42
2022-08-27T02:39:52.160Z,83.80
2022-08-27T02:42:19.213Z,83.37
2022-08-27T02:44:46.409Z,82.96
2022-08-27T02:47:14.483Z,82.85
2022-08-27T02:49:41.617Z,83.08
2022-08-27T02:52:11.154Z,83.07
2022-08-27T02:54:38.339Z,83.34
2022-08-27T02:57:06.527Z,83.74
2022-08-27T02:59:33.660Z,83.90
2022-08-27T03:02:01.474Z,83.77
2022-08-27T03:04:29.469Z,84.07
2022-08-27T03:06:56.822Z,84.33
2022-08-27T03:09:25.257Z,84.35
2022-08-27T03:11:52.250Z,83.71
2022-08-27T03:14:19.200Z,83.79
2022-08-27T03:16:46.075Z,83.08
2022-08-27T03:19:13.004Z,82.63
2022-08-27T03:21:39.940Z,81.71
2022-08-27T03:24:11.348Z,82.08
2022-08-27T03:26:40.847Z,82.24
2022-08-27T03:29:08.073Z,82.72
2022-08-27T03:31:35.042Z,82.70
2022-08-27T03:34:06.804Z,83.03
2022-08-27T03:36:33.840Z,83.47
2022-08-27T03:39:00.751Z,83.73
2022-08-27T03:41:43.711Z,85.00
2022-08-27T03:44:21.368Z,84.78
2022-08-27T03:46:49.013Z,84.84
2022-08-27T03:49:16.749Z,85.56
2022-08-27T03:51:47.811Z,87.40
2022-08-27T03:54:14.592Z,88.30
2022-08-27T03:56:41.838Z,88.90
2022-08-27T03:59:08.790Z,88.81
2022-08-27T04:01:37.232Z,89.40
2022-08-27T04:04:04.587Z,89.83
2022-08-27T04:06:31.484Z,90.17
2022-08-27T04:08:58.419Z,90.28
2022-08-27T04:11:25.400Z,90.43
2022-08-27T04:13:52.352Z,90.55
2022-08-27T04:16:19.408Z,89.94
2022-08-27T04:18:47.973Z,88.67
2022-08-27T04:21:15.793Z,87.64
2022-08-27T04:23:43.360Z,87.19
2022-08-27T04:26:12.119Z,86.98
2022-08-27T04:28:39.240Z,86.18
2022-08-27T04:31:13.162Z,86.32
2022-08-27T04:33:44.020Z,86.12
2022-08-27T04:36:20.552Z,85.86
2022-08-27T04:38:47.510Z,85.55
2022-08-27T04:41:20.396Z,85.18
2022-08-27T04:43:48.303Z,84.59
2022-08-27T04:46:19.932Z,84.38
2022-08-27T04:48:46.989Z,84.29
2022-08-27T04:51:16.075Z,83.87
2022-08-27T04:53:46.203Z,82.67
2022-08-27T04:56:14.574Z,82.75
2022-08-27T04:58:41.829Z,82.78
2022-08-27T05:01:08.901Z,82.53
2022-08-27T05:03:36.215Z,82.30
2022-08-27T05:06:05.699Z,82.10
2022-08-27T05:08:33.212Z,82.62
2022-08-27T05:11:02.519Z,81.39
2022-08-27T05:13:29.786Z,81.11
2022-08-27T05:16:01.661Z,80.53
2022-08-27T05:18:29.638Z,79.49
2022-08-27T05:20:57.432Z,78.91
2022-08-27T05:23:25.108Z,77.93
2022-08-27T05:25:52.523Z,77.90
2022-08-27T05:28:22.559Z,76.61
2022-08-27T05:31:02.796Z,75.86
2022-08-27T05:33:30.605Z,74.63
2022-08-27T05:35:59.289Z,74.99
2022-08-27T05:38:27.889Z,74.92
2022-08-27T05:41:04.226Z,74.95
2022-08-27T05:43:32.573Z,75.20
2022-08-27T05:45:59.793Z,76.10
2022-08-27T05:48:26.737Z,76.56
2022-08-27T05:50:53.760Z,77.23
2022-08-27T05:53:20.809Z,77.59
2022-08-27T05:55:47.899Z,77.84
2022-08-27T05:58:33.763Z,78.07
2022-08-27T06:01:08.240Z,78.30
2022-08-27T06:03:37.963Z,77.95
2022-08-27T06:06:07.435Z,78.19
2022-08-27T06:08:34.335Z,78.17
2022-08-27T06:11:05.200Z,77.67
2022-08-27T06:13:33.793Z,76.72
2022-08-27T06:16:03.882Z,76.41
2022-08-27T06:18:33.761Z,75.69
2022-08-27T06:21:01.253Z,76.17
2022-08-27T06:23:29.085Z,76.03
2022-08-27T06:25:55.941Z,76.18
2022-08-27T06:28:24.006Z,75.94
2022-08-27T06:30:51.421Z,75.83
2022-08-27T06:33:21.312Z,75.73
2022-08-27T06:35:48.187Z,75.43
2022-08-27T06:38:15.088Z,74.98
2022-08-27T06:40:42.271Z,74.87
2022-08-27T06:43:09.143Z,74.05
2022-08-27T06:45:38.752Z,74.00
2022-08-27T06:48:06.224Z,72.72
2022-08-27T06:50:39.352Z,71.92
2022-08-27T06:53:06.677Z,71.01
2022-08-27T06:55:41.839Z,70.90
2022-08-27T06:58:08.938Z,70.52
2022-08-27T07:00:35.869Z,69.78
2022-08-27T07:03:05.585Z,69.03
2022-08-27T07:05:35.454Z,67.98
2022-08-27T07:08:04.438Z,68.05
2022-08-27T07:10:32.113Z,67.59
2022-08-27T07:12:59.428Z,66.81
2022-08-27T07:15:27.142Z,67.66
2022-08-27T07:17:56.953Z,68.01
2022-08-27T07:20:24.112Z,67.70
2022-08-27T07:22:52.328Z,68.14
2022-08-27T07:25:20.847Z,68.91
2022-08-27T07:27:48.515Z,68.56
2022-08-27T07:30:17.446Z,68.27
2022-08-27T07:32:45.453Z,67.90
2022-08-27T07:35:13.160Z,67.24
2022-08-27T07:37:41.121Z,66.62
2022-08-27T07:40:10.546Z,66.73
2022-08-27T07:42:58.893Z,66.48
2022-08-27T07:45:26.341Z,67.08
2022-08-27T07:47:53.881Z,66.17
2022-08-27T07:50:22.142Z,65.58
2022-08-27T07:52:49.628Z,65.42
2022-08-27T07:55:16.741Z,65.22
2022-08-27T07:57:45.429Z,64.42
2022-08-27T08:00:13.364Z,64.77
2022-08-27T08:02:42.133Z,65.71
2022-08-27T08:05:10.201Z,66.24
2022-08-27T08:07:38.587Z,65.56
2022-08-27T08:10:07.019Z,66.08
2022-08-27T08:12:35.500Z,64.94
2022-08-27T08:15:06.402Z,66.07
2022-08-27T08:17:34.499Z,66.63
2022-08-27T08:20:19.845Z,67.05
2022-08-27T08:22:49.359Z,66.79
2022-08-27T08:25:16.871Z,66.49
2022-08-27T08:27:43.906Z,66.45
2022-08-27T08:30:13.719Z,66.82
2022-08-27T08:32:40.917Z,66.23
2022-08-27T08:35:08.394Z,64.83
2022-08-27T08:37:35.962Z,62.62
2022-08-27T08:40:04.441Z,59.63
2022-08-27T08:42:36.949Z,58.82
2022-08-27T08:45:06.657Z,59.63
2022-08-27T08:47:43.402Z,60.19
2022-08-27T08:50:19.163Z,61.21
2022-08-27T08:52:54.101Z,59.55
2022-08-27T08:55:37.852Z,60.65
2022-08-27T08:58:13.096Z,61.81
2022-08-27T09:00:43.261Z,61.88
2022-08-27T09:03:14.105Z,61.54
2022-08-27T09:05:46.990Z,61.16
2022-08-27T09:08:38.875Z,60.50
2022-08-27T09:11:09.857Z,59.23
2022-08-27T09:13:41.921Z,56.92
2022-08-27T09:16:09.469Z,58.29
2022-08-27T09:18:41.476Z,55.93
2022-08-27T09:21:19.019Z,56.22
2022-08-27T09:24:05.865Z,57.34
2022-08-27T09:26:37.136Z,55.84
2022-08-27T09:29:16.488Z,54.70
2022-08-27T09:31:45.168Z,55.33
2022-08-27T09:34:14.368Z,54.24
2022-08-27T09:37:00.044Z,53.25
2022-08-27T09:39:34.930Z,50.49
2022-08-27T09:42:03.592Z,51.46
2022-08-27T09:44:32.725Z,49.55
2022-08-27T09:47:02.488Z,47.97
2022-08-27T09:49:34.605Z,46.91
2022-08-27T09:52:02.333Z,43.70
2022-08-27T09:54:42.763Z,43.23
2022-08-27T09:57:11.925Z,44.00
2022-08-27T09:59:41.691Z,43.58
2022-08-27T10:02:15.529Z,46.11
2022-08-27T10:04:51.534Z,48.80
2022-08-27T10:07:37.462Z,46.06
2022-08-27T10:10:14.683Z,40.60
2022-08-27T10:12:51.925Z,37.81
2022-08-27T10:15:19.086Z,37.08
2022-08-27T10:17:58.536Z,35.79
2022-08-27T10:20:37.057Z,37.73
2022-08-27T10:23:16.796Z,38.18
2022-08-27T10:25:53.993Z,34.85
2022-08-27T10:28:34.552Z,36.85
2022-08-27T10:31:08.932Z,36.21
2022-08-27T10:33:44.800Z,36.14
2022-08-27T10:36:26.843Z,35.65
2022-08-27T10:39:03.111Z,34.09
2022-08-27T10:41:34.881Z,33.93
2022-08-27T10:44:19.587Z,33.96
2022-08-27T10:47:08.342Z,38.65
2022-08-27T10:49:45.769Z,38.39
2022-08-27T10:52:21.403Z,39.48
2022-08-27T10:54:54.340Z,38.02
2022-08-27T10:57:54.274Z,36.66
2022-08-27T11:00:25.249Z,33.64
2022-08-27T11:02:55.335Z,35.44
2022-08-27T11:05:27.085Z,37.78
2022-08-27T11:08:02.056Z,35.97
2022-08-27T11:10:33.042Z,33.82
2022-08-27T11:13:06.272Z,32.54
2022-08-27T11:15:36.947Z,38.37
2022-08-27T11:18:08.421Z,35.06
2022-08-27T11:20:40.969Z,36.79
2022-08-27T11:23:14.899Z,36.54
2022-08-27T11:25:51.003Z,40.33
2022-08-27T11:28:20.977Z,35.39
2022-08-27T11:31:03.734Z,33.53
2022-08-27T11:33:39.245Z,33.27
2022-08-27T11:36:33.299Z,38.59
2022-08-27T11:39:04.939Z,34.45
2022-08-27T11:41:45.783Z,36.50
2022-08-27T11:44:13.904Z,35.24
2022-08-27T11:46:45.459Z,37.66
2022-08-27T11:49:24.052Z,37.56
2022-08-27T11:52:02.554Z,39.67
2022-08-27T11:54:44.479Z,34.51
2022-08-27T11:57:15.972Z,35.07
2022-08-27T11:59:43.735Z,36.92
2022-08-27T12:02:21.334Z,41.01
2022-08-27T12:04:49.954Z,40.69
2022-08-27T12:07:29.465Z,41.43
2022-08-27T12:10:11.447Z,40.11
2022-08-27T12:12:49.869Z,38.18
2022-08-27T12:15:22.381Z,39.44
2022-08-27T12:18:09.984Z,39.65
2022-08-27T12:20:46.425Z,37.95
2022-08-27T12:23:44.151Z,37.63
2022-08-27T12:26:27.185Z,39.02
2022-08-27T12:29:16.540Z,37.89
2022-08-27T12:31:46.386Z,41.46
2022-08-27T12:34:16.187Z,39.55
2022-08-27T12:36:49.304Z,37.71
2022-08-27T12:39:19.018Z,38.58
2022-08-27T12:41:49.822Z,37.99
2022-08-27T12:44:24.837Z,38.35
2022-08-27T12:46:54.743Z,39.96
2022-08-27T12:49:38.047Z,42.51
2022-08-27T12:52:19.229Z,46.33
2022-08-27T12:54:57.921Z,48.94
2022-08-27T12:57:36.340Z,48.74
2022-08-27T13:00:12.955Z,48.39
2022-08-27T13:02:56.133Z,48.04
2022-08-27T13:05:24.285Z,45.80
2022-08-27T13:07:53.583Z,49.31
2022-08-27T13:10:29.531Z,49.03
2022-08-27T13:13:08.883Z,48.80
2022-08-27T13:15:36.902Z,48.50
2022-08-27T13:18:07.015Z,48.87
2022-08-27T13:20:36.627Z,48.91
2022-08-27T13:23:04.230Z,47.60
2022-08-27T13:25:33.504Z,49.87
2022-08-27T13:28:08.258Z,46.87
2022-08-27T13:30:37.992Z,47.75
2022-08-27T13:33:07.661Z,48.02
2022-08-27T13:35:35.664Z,47.48
2022-08-27T13:38:04.109Z,47.66
2022-08-27T13:40:33.378Z,49.74
2022-08-27T13:43:08.655Z,47.38
2022-08-27T13:45:39.507Z,47.51
2022-08-27T13:48:07.658Z,48.48
2022-08-27T13:50:37.219Z,47.82
2022-08-27T13:53:26.061Z,48.75
2022-08-27T13:55:54.403Z,49.66
2022-08-27T13:58:27.282Z,50.26
2022-08-27T14:01:08.665Z,49.99
2022-08-27T14:03:45.809Z,50.24
2022-08-27T14:06:22.944Z,49.95
2022-08-27T14:08:49.969Z,49.22
2022-08-27T14:11:24.061Z,48.49
2022-08-27T14:13:51.856Z,48.47
2022-08-27T14:16:27.567Z,50.26
2022-08-27T14:19:02.836Z,49.80
2022-08-27T14:21:30.220Z,51.50
2022-08-27T14:23:57.168Z,51.29
2022-08-27T14:26:27.073Z,49.95
2022-08-27T14:28:54.936Z,50.33
2022-08-27T14:31:23.029Z,50.71
2022-08-27T14:33:54.221Z,50.61
2022-08-27T14:36:22.875Z,49.32
2022-08-27T14:38:51.737Z,48.99
2022-08-27T14:41:21.574Z,48.10
2022-08-27T14:43:49.850Z,49.15
2022-08-27T14:46:22.975Z,48.78
2022-08-27T14:48:54.686Z,50.56
2022-08-27T14:51:25.312Z,50.67
2022-08-27T14:53:55.240Z,51.67
2022-08-27T14:56:23.004Z,51.87
2022-08-27T14:58:50.813Z,52.07
2022-08-27T15:01:29.739Z,53.43
2022-08-27T15:03:58.735Z,52.32
2022-08-27T15:06:27.257Z,51.43
2022-08-27T15:08:55.372Z,52.65
2022-08-27T15:11:24.389Z,53.04
2022-08-27T15:13:52.540Z,52.64
2022-08-27T15:16:27.869Z,50.87
2022-08-27T15:19:00.911Z,51.17
2022-08-27T15:21:30.833Z,52.31
2022-08-27T15:24:01.659Z,50.94
2022-08-27T15:26:28.671Z,51.84
2022-08-27T15:28:56.298Z,52.97
2022-08-27T15:31:23.720Z,53.95
2022-08-27T15:33:50.860Z,55.46
2022-08-27T15:36:17.778Z,56.06
2022-08-27T15:38:46.105Z,58.01
2022-08-27T15:41:13.093Z,57.58
2022-08-27T15:43:40.521Z,57.33
2022-08-27T15:46:07.569Z,54.70
2022-08-27T15:48:34.947Z,55.54
2022-08-27T15:51:06.317Z,56.58
2022-08-27T15:53:34.624Z,56.83
2022-08-27T15:56:04.040Z,58.10
2022-08-27T15:58:31.316Z,59.07
2022-08-27T16:01:06.398Z,60.80
2022-08-27T16:03:35.666Z,59.55
2022-08-27T16:06:03.878Z,59.88
2022-08-27T16:08:36.840Z,60.50
2022-08-27T16:11:10.586Z,60.33
2022-08-27T16:13:38.036Z,58.25
2022-08-27T16:16:07.168Z,57.91
2022-08-27T16:18:34.975Z,57.24
2022-08-27T16:21:03.482Z,58.09
2022-08-27T16:23:32.008Z,57.93
2022-08-27T16:25:59.034Z,59.35
2022-08-27T16:28:27.484Z,59.60
2022-08-27T16:30:56.446Z,60.27
2022-08-27T16:33:24.024Z,59.90
2022-08-27T16:35:50.936Z,59.52
2022-08-27T16:38:18.236Z,59.62
2022-08-27T16:40:48.794Z,60.04
2022-08-27T16:43:20.486Z,59.29
2022-08-27T16:45:49.204Z,62.10
2022-08-27T16:48:36.098Z,60.42
2022-08-27T16:51:04.551Z,60.16
2022-08-27T16:53:34.537Z,59.64
2022-08-27T16:56:01.893Z,60.54
2022-08-27T16:58:31.097Z,60.59
2022-08-27T17:01:01.611Z,60.71
2022-08-27T17:03:30.578Z,60.14
2022-08-27T17:05:58.858Z,60.15
2022-08-27T17:08:27.498Z,60.00
2022-08-27T17:10:55.691Z,60.75
2022-08-27T17:13:28.125Z,60.61
2022-08-27T17:15:56.264Z,60.28
2022-08-27T17:18:27.871Z,60.10
2022-08-27T17:20:56.607Z,60.99
2022-08-27T17:23:32.202Z,61.29
2022-08-27T17:25:59.426Z,62.47
2022-08-27T17:28:26.319Z,62.44
2022-08-27T17:30:55.296Z,63.04
2022-08-27T17:33:29.781Z,62.89
2022-08-27T17:35:56.626Z,62.55
2022-08-27T17:38:23.446Z,64.44
2022-08-27T17:40:52.166Z,63.29
2022-08-27T17:43:21.180Z,62.70
2022-08-27T17:45:48.927Z,62.50
2022-08-27T17:48:19.279Z,63.24
2022-08-27T17:50:47.932Z,62.41
2022-08-27T17:53:14.821Z,62.12
2022-08-27T17:55:42.790Z,63.29
2022-08-27T17:58:09.669Z,63.13
2022-08-27T18:00:37.944Z,64.37
2022-08-27T18:03:04.750Z,64.41
2022-08-27T18:05:31.575Z,64.19
2022-08-27T18:08:00.519Z,64.57
2022-08-27T18:10:36.517Z,65.01
2022-08-27T18:13:04.520Z,64.23
2022-08-27T18:15:34.258Z,65.43
2022-08-27T18:18:02.057Z,64.76
2022-08-27T18:20:30.849Z,65.44
2022-08-27T18:23:00.081Z,66.28
2022-08-27T18:25:33.853Z,65.54
2022-08-27T18:28:05.805Z,65.91
2022-08-27T18:30:32.828Z,66.05
2022-08-27T18:33:00.280Z,64.66
2022-08-27T18:35:30.259Z,65.16
2022-08-27T18:37:57.187Z,65.38
2022-08-27T18:40:28.923Z,65.74
2022-08-27T18:42:56.794Z,67.03
2022-08-27T18:45:26.316Z,66.96
2022-08-27T18:47:58.715Z,65.95
2022-08-27T18:50:27.316Z,66.11
2022-08-27T18:52:56.717Z,66.91
2022-08-27T18:55:28.239Z,67.40
2022-08-27T18:57:55.697Z,67.98
2022-08-27T19:00:23.238Z,67.08
2022-08-27T19:02:52.595Z,66.14
2022-08-27T19:05:23.470Z,66.26
2022-08-27T19:07:50.521Z,66.44
2022-08-27T19:10:18.254Z,66.42
2022-08-27T19:12:47.995Z,66.78
2022-08-27T19:15:15.494Z,67.75
2022-08-27T19:17:45.582Z,67.89
2022-08-27T19:20:13.421Z,68.64
2022-08-27T19:22:40.595Z,68.61
2022-08-27T19:25:08.292Z,68.97
2022-08-27T19:27:36.304Z,68.22
2022-08-27T19:30:06.203Z,68.32
2022-08-27T19:32:33.116Z,68.30
2022-08-27T19:35:01.359Z,68.84
2022-08-27T19:37:30.524Z,68.63
2022-08-27T19:39:57.988Z,67.84
2022-08-27T19:42:24.843Z,67.75
2022-08-27T19:44:51.780Z,68.49
2022-08-27T19:47:25.771Z,67.97
2022-08-27T19:49:53.109Z,68.63
2022-08-27T19:52:20.462Z,69.17
2022-08-27T19:55:12.199Z,69.67
2022-08-27T19:57:34.140Z,70.53
2022-08-27T20:00:01.230Z,71.88
2022-08-27T20:02:37.841Z,70.97
2022-08-27T20:05:20.825Z,71.61
2022-08-27T20:07:48.569Z,70.68
2022-08-27T20:10:16.443Z,72.32
2022-08-27T20:12:43.620Z,72.15
2022-08-27T20:15:11.573Z,73.40
2022-08-27T20:17:41.286Z,72.40
2022-08-27T20:20:09.274Z,72.75
2022-08-27T20:22:36.241Z,72.92
2022-08-27T20:25:03.086Z,72.72
2022-08-27T20:27:30.409Z,72.79
2022-08-27T20:29:57.464Z,72.98
2022-08-27T20:32:29.704Z,72.60
2022-08-27T20:34:58.317Z,72.37
2022-08-27T20:37:25.374Z,73.38
2022-08-27T20:39:52.715Z,73.30
2022-08-27T20:42:20.104Z,73.53
2022-08-27T20:44:47.101Z,72.80
2022-08-27T20:47:14.846Z,72.90
2022-08-27T20:49:44.827Z,73.38
2022-08-27T20:52:13.472Z,72.43
2022-08-27T20:54:40.349Z,72.71
2022-08-27T20:57:08.781Z,73.67
2022-08-27T20:59:54.715Z,73.82
2022-08-27T21:02:24.257Z,73.38
2022-08-27T21:04:52.046Z,73.43
2022-08-27T21:07:22.138Z,73.96
2022-08-27T21:09:51.924Z,74.66
2022-08-27T21:12:24.272Z,75.37
2022-08-27T21:14:55.681Z,74.79
2022-08-27T21:17:24.482Z,74.67
2022-08-27T21:19:51.684Z,74.53
2022-08-27T21:22:20.701Z,74.69
2022-08-27T21:24:47.800Z,75.59
2022-08-27T21:27:14.758Z,75.17
2022-08-27T21:29:41.593Z,75.34
2022-08-27T21:32:09.713Z,76.29
2022-08-27T21:34:36.975Z,75.91
2022-08-27T21:37:04.952Z,75.18
2022-08-27T21:39:34.462Z,74.74
2022-08-27T21:42:01.860Z,75.17
2022-08-27T21:44:30.276Z,75.48
2022-08-27T21:46:57.938Z,75.71
2022-08-27T21:49:24.968Z,75.25
2022-08-27T21:51:51.835Z,75.25
2022-08-27T21:54:18.851Z,74.01
2022-08-27T21:56:47.038Z,74.92
2022-08-27T21:59:14.194Z,74.43
2022-08-27T22:01:41.173Z,74.83
2022-08-27T22:04:08.411Z,74.44
2022-08-27T22:06:35.329Z,75.23
2022-08-27T22:09:02.083Z,74.36
2022-08-27T22:11:30.642Z,74.76
2022-08-27T22:13:59.089Z,75.39
2022-08-27T22:16:26.107Z,75.67
2022-08-27T22:18:54.718Z,75.63
2022-08-27T22:21:22.377Z,75.14
2022-08-27T22:23:51.511Z,74.04
2022-08-27T22:26:19.335Z,75.58
2022-08-27T22:28:46.136Z,75.93
2022-08-27T22:31:14.736Z,75.13
2022-08-27T22:33:41.673Z,75.65
2022-08-27T22:36:08.947Z,76.26
2022-08-27T22:38:35.901Z,75.64
2022-08-27T22:41:03.450Z,75.52
2022-08-27T22:43:30.673Z,75.15
2022-08-27T22:45:57.720Z,74.80
2022-08-27T22:48:26.096Z,74.68
2022-08-27T22:50:52.976Z,74.78
2022-08-27T22:53:19.778Z,74.12
2022-08-27T22:55:50.107Z,73.96
2022-08-27T22:58:17.863Z,73.91
2022-08-27T23:00:45.219Z,73.31
2022-08-27T23:03:17.693Z,73.08
2022-08-27T23:05:46.710Z,72.83
2022-08-27T23:08:14.499Z,73.17
2022-08-27T23:10:42.869Z,73.12
2022-08-27T23:13:10.781Z,73.09
2022-08-27T23:15:38.937Z,73.15
2022-08-27T23:18:06.791Z,73.65
2022-08-27T23:20:34.294Z,74.17
2022-08-27T23:23:02.825Z,73.96
2022-08-27T23:25:49.207Z,73.10
2022-08-27T23:28:16.305Z,73.25
2022-08-27T23:30:44.194Z,72.94
2022-08-27T23:33:12.104Z,73.43
2022-08-27T23:35:39.008Z,73.62
2022-08-27T23:38:07.413Z,73.62
2022-08-27T23:40:34.373Z,74.32
2022-08-27T23:43:01.567Z,74.35
2022-08-27T23:45:28.460Z,74.04
2022-08-27T23:47:55.288Z,74.24
2022-08-27T23:50:23.121Z,74.85
2022-08-27T23:53:00.635Z,74.76
2022-08-27T23:55:29.143Z,74.66
2022-08-27T23:57:57.827Z,73.99
